sensor_id;sensor_type;location;lat;lon;timestamp;pressure;altitude;pressure_sealevel;temperature;humidity
76352;BME280;65179;47.786;19.138;2022-12-18T00:01:37;101749.75;;;-1.63;77.44
76352;BME280;65179;47.786;19.138;2022-12-18T00:04:04;101754.09;;;-1.62;77.53
76352;BME280;65179;47.786;19.138;2022-12-18T00:06:31;101764.88;;;-1.63;77.40
76352;BME280;65179;47.786;19.138;2022-12-18T00:08:59;101766.81;;;-1.65;77.34
76352;BME280;65179;47.786;19.138;2022-12-18T00:11:27;101778.31;;;-1.65;77.62
76352;BME280;65179;47.786;19.138;2022-12-18T00:13:56;101784.47;;;-1.64;77.87
76352;BME280;65179;47.786;19.138;2022-12-18T00:16:23;101791.62;;;-1.65;77.83
76352;BME280;65179;47.786;19.138;2022-12-18T00:18:51;101801.50;;;-1.67;77.78
76352;BME280;65179;47.786;19.138;2022-12-18T00:21:18;101800.13;;;-1.72;77.93
76352;BME280;65179;47.786;19.138;2022-12-18T00:23:44;101801.94;;;-1.73;77.87
76352;BME280;65179;47.786;19.138;2022-12-18T00:26:13;101809.31;;;-1.76;77.50
76352;BME280;65179;47.786;19.138;2022-12-18T00:28:40;101814.75;;;-1.78;77.82
76352;BME280;65179;47.786;19.138;2022-12-18T00:31:08;101815.88;;;-1.82;77.88
76352;BME280;65179;47.786;19.138;2022-12-18T00:33:34;101815.38;;;-1.87;78.14
76352;BME280;65179;47.786;19.138;2022-12-18T00:36:07;101833.16;;;-1.87;78.76
76352;BME280;65179;47.786;19.138;2022-12-18T00:38:33;101830.69;;;-1.90;78.50
76352;BME280;65179;47.786;19.138;2022-12-18T00:40:59;101835.38;;;-1.94;78.48
76352;BME280;65179;47.786;19.138;2022-12-18T00:43:25;101837.28;;;-1.96;78.56
76352;BME280;65179;47.786;19.138;2022-12-18T00:45:50;101835.59;;;-1.97;78.77
76352;BME280;65179;47.786;19.138;2022-12-18T00:48:16;101840.28;;;-2.00;79.09
76352;BME280;65179;47.786;19.138;2022-12-18T00:50:41;101837.81;;;-2.03;78.98
76352;BME280;65179;47.786;19.138;2022-12-18T00:53:07;101852.19;;;-2.06;79.31
76352;BME280;65179;47.786;19.138;2022-12-18T00:55:32;101854.09;;;-2.08;79.55
76352;BME280;65179;47.786;19.138;2022-12-18T00:57:58;101861.31;;;-2.10;79.42
76352;BME280;65179;47.786;19.138;2022-12-18T01:00:23;101853.44;;;-2.11;79.78
76352;BME280;65179;47.786;19.138;2022-12-18T01:02:49;101863.47;;;-2.15;79.76
76352;BME280;65179;47.786;19.138;2022-12-18T01:05:15;101862.59;;;-2.15;80.17
76352;BME280;65179;47.786;19.138;2022-12-18T01:07:40;101867.28;;;-2.19;80.10
76352;BME280;65179;47.786;19.138;2022-12-18T01:10:07;101856.63;;;-2.19;80.21
76352;BME280;65179;47.786;19.138;2022-12-18T01:12:33;101860.44;;;-2.23;80.17
76352;BME280;65179;47.786;19.138;2022-12-18T01:14:58;101870.25;;;-2.23;80.15
76352;BME280;65179;47.786;19.138;2022-12-18T01:17:24;101876.72;;;-2.27;80.24
76352;BME280;65179;47.786;19.138;2022-12-18T01:19:49;101878.41;;;-2.26;80.35
76352;BME280;65179;47.786;19.138;2022-12-18T01:22:15;101885.66;;;-2.28;80.58
76352;BME280;65179;47.786;19.138;2022-12-18T01:24:40;101879.78;;;-2.34;80.66
76352;BME280;65179;47.786;19.138;2022-12-18T01:27:06;101882.34;;;-2.32;80.98
76352;BME280;65179;47.786;19.138;2022-12-18T01:29:31;101884.47;;;-2.37;80.93
76352;BME280;65179;47.786;19.138;2022-12-18T01:31:57;101880.19;;;-2.40;81.05
76352;BME280;65179;47.786;19.138;2022-12-18T01:34:23;101885.62;;;-2.41;81.12
76352;BME280;65179;47.786;19.138;2022-12-18T01:36:49;101897.41;;;-2.45;81.17
76352;BME280;65179;47.786;19.138;2022-12-18T01:39:17;101891.88;;;-2.42;81.28
76352;BME280;65179;47.786;19.138;2022-12-18T01:41:43;101895.69;;;-2.46;81.28
76352;BME280;65179;47.786;19.138;2022-12-18T01:47:25;101887.25;;;-2.53;81.29
76352;BME280;65179;47.786;19.138;2022-12-18T01:49:52;101896.50;;;-2.58;81.32
76352;BME280;65179;47.786;19.138;2022-12-18T01:52:18;101895.00;;;-2.62;81.40
76352;BME280;65179;47.786;19.138;2022-12-18T01:54:46;101899.66;;;-2.66;81.69
76352;BME280;65179;47.786;19.138;2022-12-18T01:57:12;101899.75;;;-2.67;81.57
76352;BME280;65179;47.786;19.138;2022-12-18T01:59:38;101897.28;;;-2.70;81.68
76352;BME280;65179;47.786;19.138;2022-12-18T02:02:07;101905.25;;;-2.70;81.68
76352;BME280;65179;47.786;19.138;2022-12-18T02:04:32;101911.53;;;-2.71;81.71
76352;BME280;65179;47.786;19.138;2022-12-18T02:07:10;101911.94;;;-2.77;81.65
76352;BME280;65179;47.786;19.138;2022-12-18T02:09:47;101913.81;;;-2.79;81.75
76352;BME280;65179;47.786;19.138;2022-12-18T02:12:21;101924.44;;;-2.79;81.67
76352;BME280;65179;47.786;19.138;2022-12-18T02:15:07;101927.88;;;-2.77;81.70
76352;BME280;65179;47.786;19.138;2022-12-18T02:17:59;101930.72;;;-2.80;81.70
76352;BME280;65179;47.786;19.138;2022-12-18T02:20:35;101937.19;;;-2.84;81.69
76352;BME280;65179;47.786;19.138;2022-12-18T02:23:19;101939.97;;;-2.86;81.84
76352;BME280;65179;47.786;19.138;2022-12-18T02:28:42;101952.56;;;-2.89;82.01
76352;BME280;65179;47.786;19.138;2022-12-18T02:31:14;101948.41;;;-2.93;82.05
76352;BME280;65179;47.786;19.138;2022-12-18T02:33:43;101945.63;;;-2.92;81.83
76352;BME280;65179;47.786;19.138;2022-12-18T02:36:10;101946.69;;;-2.94;81.94
76352;BME280;65179;47.786;19.138;2022-12-18T02:38:38;101946.88;;;-2.97;81.83
76352;BME280;65179;47.786;19.138;2022-12-18T02:41:05;101952.37;;;-3.00;81.88
76352;BME280;65179;47.786;19.138;2022-12-18T02:43:31;101966.69;;;-3.03;81.84
76352;BME280;65179;47.786;19.138;2022-12-18T02:45:59;101974.50;;;-3.00;81.87
76352;BME280;65179;47.786;19.138;2022-12-18T02:48:31;101972.78;;;-3.01;81.96
76352;BME280;65179;47.786;19.138;2022-12-18T02:51:17;101978.19;;;-3.02;81.96
76352;BME280;65179;47.786;19.138;2022-12-18T02:53:53;101977.44;;;-3.04;81.82
76352;BME280;65179;47.786;19.138;2022-12-18T02:56:36;101973.84;;;-3.03;82.04
76352;BME280;65179;47.786;19.138;2022-12-18T02:59:13;101970.22;;;-3.02;82.04
76352;BME280;65179;47.786;19.138;2022-12-18T03:01:55;101966.81;;;-3.04;82.06
76352;BME280;65179;47.786;19.138;2022-12-18T03:04:30;101969.56;;;-3.06;82.08
76352;BME280;65179;47.786;19.138;2022-12-18T03:06:58;101971.38;;;-3.07;82.10
76352;BME280;65179;47.786;19.138;2022-12-18T03:09:31;101978.47;;;-3.07;82.11
76352;BME280;65179;47.786;19.138;2022-12-18T03:12:04;101982.28;;;-3.11;82.10
76352;BME280;65179;47.786;19.138;2022-12-18T03:15:36;101985.78;;;-3.11;82.15
76352;BME280;65179;47.786;19.138;2022-12-18T03:17:38;101994.69;;;-3.12;82.13
76352;BME280;65179;47.786;19.138;2022-12-18T03:20:12;101990.34;;;-3.13;82.16
76352;BME280;65179;47.786;19.138;2022-12-18T03:22:38;102000.28;;;-3.16;82.11
76352;BME280;65179;47.786;19.138;2022-12-18T03:25:08;102004.78;;;-3.17;82.27
76352;BME280;65179;47.786;19.138;2022-12-18T03:27:37;102003.81;;;-3.16;82.22
76352;BME280;65179;47.786;19.138;2022-12-18T03:30:07;102006.47;;;-3.16;82.24
76352;BME280;65179;47.786;19.138;2022-12-18T03:32:40;102001.44;;;-3.20;82.23
76352;BME280;65179;47.786;19.138;2022-12-18T03:35:10;102010.25;;;-3.20;82.23
76352;BME280;65179;47.786;19.138;2022-12-18T03:37:38;102013.88;;;-3.21;82.31
76352;BME280;65179;47.786;19.138;2022-12-18T03:40:04;102013.78;;;-3.19;82.39
76352;BME280;65179;47.786;19.138;2022-12-18T03:42:52;102006.75;;;-3.20;82.33
76352;BME280;65179;47.786;19.138;2022-12-18T03:45:41;102011.97;;;-3.19;82.38
76352;BME280;65179;47.786;19.138;2022-12-18T03:48:29;102017.47;;;-3.22;82.22
76352;BME280;65179;47.786;19.138;2022-12-18T03:53:36;102022.78;;;-3.22;82.27
76352;BME280;65179;47.786;19.138;2022-12-18T03:56:06;102029.13;;;-3.24;82.33
76352;BME280;65179;47.786;19.138;2022-12-18T03:58:34;102027.72;;;-3.30;82.20
76352;BME280;65179;47.786;19.138;2022-12-18T04:01:02;102034.97;;;-3.33;82.21
76352;BME280;65179;47.786;19.138;2022-12-18T04:03:30;102029.00;;;-3.37;82.45
76352;BME280;65179;47.786;19.138;2022-12-18T04:05:58;102032.81;;;-3.41;82.58
76352;BME280;65179;47.786;19.138;2022-12-18T04:08:25;102038.28;;;-3.44;82.58
76352;BME280;65179;47.786;19.138;2022-12-18T04:10:51;102031.62;;;-3.51;82.53
76352;BME280;65179;47.786;19.138;2022-12-18T04:13:27;102040.28;;;-3.47;82.59
76352;BME280;65179;47.786;19.138;2022-12-18T04:15:53;102044.44;;;-3.43;82.58
76352;BME280;65179;47.786;19.138;2022-12-18T04:18:18;102047.37;;;-3.48;82.52
76352;BME280;65179;47.786;19.138;2022-12-18T04:20:44;102051.00;;;-3.49;82.57
76352;BME280;65179;47.786;19.138;2022-12-18T04:23:09;102045.69;;;-3.49;82.87
76352;BME280;65179;47.786;19.138;2022-12-18T04:25:35;102054.41;;;-3.47;82.92
76352;BME280;65179;47.786;19.138;2022-12-18T04:28:00;102054.41;;;-3.47;82.95
76352;BME280;65179;47.786;19.138;2022-12-18T04:30:26;102060.06;;;-3.53;83.08
76352;BME280;65179;47.786;19.138;2022-12-18T04:32:51;102063.84;;;-3.57;83.02
76352;BME280;65179;47.786;19.138;2022-12-18T04:35:16;102062.31;;;-3.61;83.05
76352;BME280;65179;47.786;19.138;2022-12-18T04:37:42;102063.44;;;-3.65;83.16
76352;BME280;65179;47.786;19.138;2022-12-18T04:40:08;102067.97;;;-3.67;83.23
76352;BME280;65179;47.786;19.138;2022-12-18T04:42:33;102073.44;;;-3.70;83.26
76352;BME280;65179;47.786;19.138;2022-12-18T04:44:59;102079.38;;;-3.65;83.34
76352;BME280;65179;47.786;19.138;2022-12-18T04:47:24;102077.56;;;-3.64;83.50
76352;BME280;65179;47.786;19.138;2022-12-18T04:49:50;102081.00;;;-3.62;83.37
76352;BME280;65179;47.786;19.138;2022-12-18T04:52:15;102078.44;;;-3.64;83.36
76352;BME280;65179;47.786;19.138;2022-12-18T04:54:40;102084.41;;;-3.60;83.46
76352;BME280;65179;47.786;19.138;2022-12-18T04:57:06;102090.75;;;-3.63;83.58
76352;BME280;65179;47.786;19.138;2022-12-18T04:59:31;102091.63;;;-3.62;83.62
76352;BME280;65179;47.786;19.138;2022-12-18T05:01:57;102101.53;;;-3.66;83.71
76352;BME280;65179;47.786;19.138;2022-12-18T05:04:22;102099.84;;;-3.67;83.88
76352;BME280;65179;47.786;19.138;2022-12-18T05:06:48;102101.72;;;-3.69;83.87
76352;BME280;65179;47.786;19.138;2022-12-18T05:09:13;102105.31;;;-3.70;84.07
76352;BME280;65179;47.786;19.138;2022-12-18T05:11:38;102100.84;;;-3.69;84.25
76352;BME280;65179;47.786;19.138;2022-12-18T05:14:04;102107.03;;;-3.69;84.43
76352;BME280;65179;47.786;19.138;2022-12-18T05:16:29;102103.63;;;-3.71;84.36
76352;BME280;65179;47.786;19.138;2022-12-18T05:18:55;102106.44;;;-3.74;84.64
76352;BME280;65179;47.786;19.138;2022-12-18T05:21:20;102104.53;;;-3.72;84.78
76352;BME280;65179;47.786;19.138;2022-12-18T05:23:46;102108.22;;;-3.74;84.87
76352;BME280;65179;47.786;19.138;2022-12-18T05:26:16;102111.75;;;-3.74;84.74
76352;BME280;65179;47.786;19.138;2022-12-18T05:28:42;102109.94;;;-3.73;84.84
76352;BME280;65179;47.786;19.138;2022-12-18T05:31:08;102117.25;;;-3.77;84.92
76352;BME280;65179;47.786;19.138;2022-12-18T05:33:34;102128.94;;;-3.81;84.87
76352;BME280;65179;47.786;19.138;2022-12-18T05:36:03;102130.75;;;-3.81;84.99
76352;BME280;65179;47.786;19.138;2022-12-18T05:38:31;102131.59;;;-3.81;84.96
76352;BME280;65179;47.786;19.138;2022-12-18T05:40:57;102134.25;;;-3.81;84.98
76352;BME280;65179;47.786;19.138;2022-12-18T05:43:24;102134.34;;;-3.83;84.99
76352;BME280;65179;47.786;19.138;2022-12-18T05:45:51;102137.88;;;-3.82;85.14
76352;BME280;65179;47.786;19.138;2022-12-18T05:48:17;102145.06;;;-3.84;85.04
76352;BME280;65179;47.786;19.138;2022-12-18T05:50:44;102151.72;;;-3.93;85.11
76352;BME280;65179;47.786;19.138;2022-12-18T05:53:11;102157.91;;;-3.92;85.20
76352;BME280;65179;47.786;19.138;2022-12-18T05:55:38;102150.72;;;-3.90;85.25
76352;BME280;65179;47.786;19.138;2022-12-18T05:58:06;102157.91;;;-3.92;85.13
76352;BME280;65179;47.786;19.138;2022-12-18T06:00:33;102168.31;;;-3.89;85.10
76352;BME280;65179;47.786;19.138;2022-12-18T06:03:00;102166.63;;;-3.90;84.94
76352;BME280;65179;47.786;19.138;2022-12-18T06:05:26;102176.47;;;-3.92;85.03
76352;BME280;65179;47.786;19.138;2022-12-18T06:07:51;102171.16;;;-3.92;85.17
76352;BME280;65179;47.786;19.138;2022-12-18T06:10:17;102178.25;;;-3.93;85.15
76352;BME280;65179;47.786;19.138;2022-12-18T06:12:42;102181.78;;;-3.92;85.15
76352;BME280;65179;47.786;19.138;2022-12-18T06:15:08;102174.75;;;-3.93;85.26
76352;BME280;65179;47.786;19.138;2022-12-18T06:17:35;102182.72;;;-3.93;85.17
76352;BME280;65179;47.786;19.138;2022-12-18T06:20:01;102189.91;;;-3.95;85.07
76352;BME280;65179;47.786;19.138;2022-12-18T06:22:27;102188.34;;;-3.99;85.31
76352;BME280;65179;47.786;19.138;2022-12-18T06:24:53;102194.53;;;-3.99;85.43
76352;BME280;65179;47.786;19.138;2022-12-18T06:27:18;102199.75;;;-3.97;85.27
76352;BME280;65179;47.786;19.138;2022-12-18T06:29:44;102199.75;;;-3.97;85.25
76352;BME280;65179;47.786;19.138;2022-12-18T06:32:10;102205.06;;;-3.97;85.41
76352;BME280;65179;47.786;19.138;2022-12-18T06:34:38;102199.75;;;-3.97;85.44
76352;BME280;65179;47.786;19.138;2022-12-18T06:37:04;102205.16;;;-3.99;85.54
76352;BME280;65179;47.786;19.138;2022-12-18T06:39:29;102203.50;;;-4.01;85.48
76352;BME280;65179;47.786;19.138;2022-12-18T06:41:55;102210.44;;;-3.99;85.50
76352;BME280;65179;47.786;19.138;2022-12-18T06:44:21;102211.38;;;-4.00;85.50
76352;BME280;65179;47.786;19.138;2022-12-18T06:46:46;102215.81;;;-4.00;85.61
76352;BME280;65179;47.786;19.138;2022-12-18T06:49:12;102216.53;;;-3.97;85.60
76352;BME280;65179;47.786;19.138;2022-12-18T06:51:37;102218.31;;;-3.97;85.67
76352;BME280;65179;47.786;19.138;2022-12-18T06:54:03;102233.28;;;-3.96;85.58
76352;BME280;65179;47.786;19.138;2022-12-18T06:56:29;102234.06;;;-3.94;85.79
76352;BME280;65179;47.786;19.138;2022-12-18T06:58:55;102241.19;;;-3.95;85.71
76352;BME280;65179;47.786;19.138;2022-12-18T07:01:21;102242.81;;;-3.92;85.67
76352;BME280;65179;47.786;19.138;2022-12-18T07:03:46;102239.34;;;-3.94;85.59
76352;BME280;65179;47.786;19.138;2022-12-18T07:06:20;102248.13;;;-3.92;85.72
76352;BME280;65179;47.786;19.138;2022-12-18T07:08:47;102245.47;;;-3.92;85.68
76352;BME280;65179;47.786;19.138;2022-12-18T07:11:13;102244.50;;;-3.91;85.65
76352;BME280;65179;47.786;19.138;2022-12-18T07:13:38;102258.56;;;-3.89;85.69
76352;BME280;65179;47.786;19.138;2022-12-18T07:16:09;102252.22;;;-3.87;85.73
76352;BME280;65179;47.786;19.138;2022-12-18T07:18:35;102258.22;;;-3.83;85.59
76352;BME280;65179;47.786;19.138;2022-12-18T07:21:05;102260.63;;;-3.78;85.54
76352;BME280;65179;47.786;19.138;2022-12-18T07:23:32;102260.56;;;-3.77;85.45
76352;BME280;65179;47.786;19.138;2022-12-18T07:26:04;102262.09;;;-3.73;85.30
76352;BME280;65179;47.786;19.138;2022-12-18T07:28:31;102269.88;;;-3.70;85.28
76352;BME280;65179;47.786;19.138;2022-12-18T07:30:56;102268.00;;;-3.68;85.20
76352;BME280;65179;47.786;19.138;2022-12-18T07:33:22;102274.03;;;-3.64;85.26
76352;BME280;65179;47.786;19.138;2022-12-18T07:35:47;102277.34;;;-3.61;85.08
76352;BME280;65179;47.786;19.138;2022-12-18T07:38:13;102288.59;;;-3.56;85.01
76352;BME280;65179;47.786;19.138;2022-12-18T07:40:38;102292.88;;;-3.53;84.91
76352;BME280;65179;47.786;19.138;2022-12-18T07:43:03;102298.97;;;-3.51;84.81
76352;BME280;65179;47.786;19.138;2022-12-18T07:45:30;102304.03;;;-3.47;84.79
76352;BME280;65179;47.786;19.138;2022-12-18T07:47:56;102301.19;;;-3.44;84.83
76352;BME280;65179;47.786;19.138;2022-12-18T07:50:21;102310.78;;;-3.41;84.94
76352;BME280;65179;47.786;19.138;2022-12-18T07:52:47;102319.44;;;-3.38;85.00
76352;BME280;65179;47.786;19.138;2022-12-18T07:55:12;102320.16;;;-3.34;84.77
76352;BME280;65179;47.786;19.138;2022-12-18T07:57:37;102333.19;;;-3.30;84.74
76352;BME280;65179;47.786;19.138;2022-12-18T08:00:03;102324.09;;;-3.26;84.71
76352;BME280;65179;47.786;19.138;2022-12-18T08:02:31;102329.22;;;-3.23;84.66
76352;BME280;65179;47.786;19.138;2022-12-18T08:04:56;102318.44;;;-3.20;84.58
76352;BME280;65179;47.786;19.138;2022-12-18T08:07:22;102336.69;;;-3.14;84.54
76352;BME280;65179;47.786;19.138;2022-12-18T08:09:47;102339.09;;;-3.09;84.32
76352;BME280;65179;47.786;19.138;2022-12-18T08:12:12;102336.94;;;-3.02;84.16
76352;BME280;65179;47.786;19.138;2022-12-18T08:14:38;102336.59;;;-2.96;84.16
76352;BME280;65179;47.786;19.138;2022-12-18T08:17:03;102329.22;;;-2.91;83.90
76352;BME280;65179;47.786;19.138;2022-12-18T08:19:29;102327.34;;;-2.89;83.40
76352;BME280;65179;47.786;19.138;2022-12-18T08:21:55;102344.66;;;-2.82;83.15
76352;BME280;65179;47.786;19.138;2022-12-18T08:24:20;102335.56;;;-2.78;82.69
76352;BME280;65179;47.786;19.138;2022-12-18T08:26:45;102343.28;;;-2.74;82.21
76352;BME280;65179;47.786;19.138;2022-12-18T08:29:11;102342.94;;;-2.68;81.83
76352;BME280;65179;47.786;19.138;2022-12-18T08:31:37;102342.66;;;-2.63;81.79
76352;BME280;65179;47.786;19.138;2022-12-18T08:34:02;102344.97;;;-2.57;81.51
76352;BME280;65179;47.786;19.138;2022-12-18T08:36:28;102349.16;;;-2.53;81.63
76352;BME280;65179;47.786;19.138;2022-12-18T08:38:54;102355.09;;;-2.48;81.35
76352;BME280;65179;47.786;19.138;2022-12-18T08:41:20;102355.75;;;-2.45;81.42
76352;BME280;65179;47.786;19.138;2022-12-18T08:43:45;102352.81;;;-2.40;81.45
76352;BME280;65179;47.786;19.138;2022-12-18T08:46:35;102352.56;;;-2.36;81.25
76352;BME280;65179;47.786;19.138;2022-12-18T08:49:01;102355.91;;;-2.32;81.32
76352;BME280;65179;47.786;19.138;2022-12-18T08:51:27;102356.47;;;-2.27;81.28
76352;BME280;65179;47.786;19.138;2022-12-18T08:53:52;102357.09;;;-2.22;81.01
76352;BME280;65179;47.786;19.138;2022-12-18T08:56:18;102358.50;;;-2.16;80.12
76352;BME280;65179;47.786;19.138;2022-12-18T08:58:43;102356.16;;;-2.07;79.97
76352;BME280;65179;47.786;19.138;2022-12-18T09:01:10;102366.13;;;-1.67;79.13
76352;BME280;65179;47.786;19.138;2022-12-18T09:03:37;102370.31;;;-1.06;77.01
76352;BME280;65179;47.786;19.138;2022-12-18T09:06:03;102372.16;;;-0.80;75.44
76352;BME280;65179;47.786;19.138;2022-12-18T09:08:28;102369.09;;;-0.21;73.84
76352;BME280;65179;47.786;19.138;2022-12-18T09:10:54;102376.22;;;0.31;72.08
76352;BME280;65179;47.786;19.138;2022-12-18T09:13:20;102372.81;;;0.79;70.12
76352;BME280;65179;47.786;19.138;2022-12-18T09:15:51;102380.97;;;1.14;69.22
76352;BME280;65179;47.786;19.138;2022-12-18T09:18:19;102381.09;;;1.48;67.64
76352;BME280;65179;47.786;19.138;2022-12-18T09:20:45;102386.31;;;1.50;67.27
76352;BME280;65179;47.786;19.138;2022-12-18T09:23:11;102380.75;;;1.77;65.73
76352;BME280;65179;47.786;19.138;2022-12-18T09:25:37;102382.81;;;1.84;65.11
76352;BME280;65179;47.786;19.138;2022-12-18T09:28:05;102390.34;;;2.03;65.83
76352;BME280;65179;47.786;19.138;2022-12-18T09:30:31;102380.88;;;2.10;64.91
76352;BME280;65179;47.786;19.138;2022-12-18T09:32:58;102385.28;;;2.22;63.76
76352;BME280;65179;47.786;19.138;2022-12-18T09:35:24;102380.38;;;2.51;64.30
76352;BME280;65179;47.786;19.138;2022-12-18T09:37:49;102378.75;;;2.37;63.25
76352;BME280;65179;47.786;19.138;2022-12-18T09:40:21;102378.56;;;3.06;62.74
76352;BME280;65179;47.786;19.138;2022-12-18T09:43:03;102384.62;;;3.31;61.42
76352;BME280;65179;47.786;19.138;2022-12-18T09:45:44;102379.34;;;3.29;59.92
76352;BME280;65179;47.786;19.138;2022-12-18T09:48:21;102378.91;;;3.02;59.65
76352;BME280;65179;47.786;19.138;2022-12-18T09:50:50;102378.75;;;3.26;59.26
76352;BME280;65179;47.786;19.138;2022-12-18T09:53:19;102370.66;;;3.48;59.11
76352;BME280;65179;47.786;19.138;2022-12-18T09:55:48;102374.62;;;3.64;58.36
76352;BME280;65179;47.786;19.138;2022-12-18T09:58:20;102370.56;;;3.27;56.95
76352;BME280;65179;47.786;19.138;2022-12-18T10:00:53;102380.72;;;3.35;57.56
76352;BME280;65179;47.786;19.138;2022-12-18T10:03:20;102362.03;;;3.76;56.76
76352;BME280;65179;47.786;19.138;2022-12-18T10:08:18;102361.63;;;4.33;56.93
76352;BME280;65179;47.786;19.138;2022-12-18T10:10:50;102353.53;;;4.12;56.34
76352;BME280;65179;47.786;19.138;2022-12-18T10:24:14;102372.31;;;4.23;55.93
76352;BME280;65179;47.786;19.138;2022-12-18T10:26:44;102363.94;;;3.42;57.38
76352;BME280;65179;47.786;19.138;2022-12-18T10:29:12;102368.19;;;4.70;56.96
76352;BME280;65179;47.786;19.138;2022-12-18T10:31:39;102368.66;;;4.24;55.46
76352;BME280;65179;47.786;19.138;2022-12-18T10:34:08;102369.97;;;5.20;55.22
76352;BME280;65179;47.786;19.138;2022-12-18T10:36:34;102368.94;;;5.02;54.08
76352;BME280;65179;47.786;19.138;2022-12-18T10:39:21;102359.59;;;5.75;52.79
76352;BME280;65179;47.786;19.138;2022-12-18T10:41:47;102366.00;;;6.02;51.98
76352;BME280;65179;47.786;19.138;2022-12-18T10:44:21;102356.81;;;6.61;50.02
76352;BME280;65179;47.786;19.138;2022-12-18T10:46:54;102371.69;;;5.31;49.82
76352;BME280;65179;47.786;19.138;2022-12-18T10:49:27;102365.56;;;4.80;52.18
76352;BME280;65179;47.786;19.138;2022-12-18T10:52:25;102364.31;;;5.33;50.85
76352;BME280;65179;47.786;19.138;2022-12-18T10:54:58;102370.00;;;5.89;51.86
76352;BME280;65179;47.786;19.138;2022-12-18T10:59:56;102364.06;;;5.36;51.83
76352;BME280;65179;47.786;19.138;2022-12-18T11:02:34;102360.34;;;5.86;51.47
76352;BME280;65179;47.786;19.138;2022-12-18T11:05:01;102361.44;;;6.22;49.51
76352;BME280;65179;47.786;19.138;2022-12-18T11:07:47;102362.41;;;7.23;49.97
76352;BME280;65179;47.786;19.138;2022-12-18T11:10:18;102353.34;;;7.59;48.02
76352;BME280;65179;47.786;19.138;2022-12-18T11:12:45;102348.69;;;6.70;48.02
76352;BME280;65179;47.786;19.138;2022-12-18T11:15:30;102346.88;;;6.98;46.98
76352;BME280;65179;47.786;19.138;2022-12-18T11:17:55;102344.69;;;6.84;47.29
76352;BME280;65179;47.786;19.138;2022-12-18T11:20:33;102346.00;;;7.70;46.99
76352;BME280;65179;47.786;19.138;2022-12-18T11:23:03;102349.97;;;7.57;44.89
76352;BME280;65179;47.786;19.138;2022-12-18T11:25:30;102347.56;;;7.72;45.80
76352;BME280;65179;47.786;19.138;2022-12-18T11:28:02;102348.97;;;8.29;44.29
76352;BME280;65179;47.786;19.138;2022-12-18T11:30:37;102348.25;;;7.74;44.34
76352;BME280;65179;47.786;19.138;2022-12-18T11:33:14;102342.25;;;6.35;45.41
76352;BME280;65179;47.786;19.138;2022-12-18T11:35:51;102337.19;;;7.05;45.26
76352;BME280;65179;47.786;19.138;2022-12-18T11:38:34;102330.03;;;7.94;45.47
76352;BME280;65179;47.786;19.138;2022-12-18T11:41:14;102333.78;;;8.95;43.85
76352;BME280;65179;47.786;19.138;2022-12-18T11:43:49;102333.72;;;6.49;44.36
76352;BME280;65179;47.786;19.138;2022-12-18T11:46:23;102331.81;;;7.85;45.17
76352;BME280;65179;47.786;19.138;2022-12-18T11:49:06;102339.28;;;8.09;43.38
76352;BME280;65179;47.786;19.138;2022-12-18T11:52:02;102334.09;;;8.15;43.15
76352;BME280;65179;47.786;19.138;2022-12-18T11:54:29;102331.81;;;7.68;42.34
76352;BME280;65179;47.786;19.138;2022-12-18T11:59:54;102331.34;;;8.51;43.20
76352;BME280;65179;47.786;19.138;2022-12-18T12:05:04;102332.47;;;8.40;42.49
76352;BME280;65179;47.786;19.138;2022-12-18T12:13:28;102323.09;;;8.60;40.61
76352;BME280;65179;47.786;19.138;2022-12-18T12:16:21;102327.06;;;8.74;40.39
76352;BME280;65179;47.786;19.138;2022-12-18T12:40:18;102323.97;;;6.09;45.29
76352;BME280;65179;47.786;19.138;2022-12-18T12:42:48;102333.19;;;5.69;46.21
76352;BME280;65179;47.786;19.138;2022-12-18T12:45:52;102327.38;;;5.64;46.88
76352;BME280;65179;47.786;19.138;2022-12-18T12:48:40;102343.94;;;5.40;46.93
76352;BME280;65179;47.786;19.138;2022-12-18T12:51:16;102346.06;;;5.36;48.01
76352;BME280;65179;47.786;19.138;2022-12-18T12:53:42;102348.00;;;5.25;47.22
76352;BME280;65179;47.786;19.138;2022-12-18T12:56:11;102358.50;;;4.88;48.46
76352;BME280;65179;47.786;19.138;2022-12-18T13:01:25;102351.53;;;4.76;48.19
76352;BME280;65179;47.786;19.138;2022-12-18T13:09:22;102365.06;;;4.44;49.83
76352;BME280;65179;47.786;19.138;2022-12-18T13:11:48;102367.88;;;4.94;49.56
76352;BME280;65179;47.786;19.138;2022-12-18T13:14:37;102365.78;;;4.46;49.23
76352;BME280;65179;47.786;19.138;2022-12-18T13:19:42;102365.75;;;4.16;50.25
76352;BME280;65179;47.786;19.138;2022-12-18T13:22:32;102372.75;;;4.70;50.70
76352;BME280;65179;47.786;19.138;2022-12-18T13:24:59;102372.81;;;4.58;49.53
76352;BME280;65179;47.786;19.138;2022-12-18T13:35:42;102383.31;;;4.20;50.75
76352;BME280;65179;47.786;19.138;2022-12-18T13:38:22;102381.97;;;4.26;50.05
76352;BME280;65179;47.786;19.138;2022-12-18T13:48:54;102389.59;;;3.89;52.33
76352;BME280;65179;47.786;19.138;2022-12-18T13:51:21;102391.97;;;4.03;52.58
76352;BME280;65179;47.786;19.138;2022-12-18T13:53:53;102394.47;;;3.84;52.22
76352;BME280;65179;47.786;19.138;2022-12-18T13:56:24;102395.28;;;3.64;52.71
76352;BME280;65179;47.786;19.138;2022-12-18T13:59:06;102405.66;;;3.57;52.83
76352;BME280;65179;47.786;19.138;2022-12-18T14:01:35;102403.06;;;3.35;53.56
76352;BME280;65179;47.786;19.138;2022-12-18T14:04:34;102396.09;;;3.33;54.04
76352;BME280;65179;47.786;19.138;2022-12-18T14:07:07;102403.66;;;3.05;53.95
76352;BME280;65179;47.786;19.138;2022-12-18T14:09:39;102400.84;;;3.29;54.17
76352;BME280;65179;47.786;19.138;2022-12-18T14:12:06;102400.88;;;3.07;54.43
76352;BME280;65179;47.786;19.138;2022-12-18T14:14:51;102402.69;;;2.95;55.14
76352;BME280;65179;47.786;19.138;2022-12-18T14:17:18;102400.75;;;2.97;55.68
76352;BME280;65179;47.786;19.138;2022-12-18T14:19:49;102402.94;;;2.92;55.93